sensor_id;sensor_type;location;lat;lon;timestamp;temperature;humidity
66740;DHT22;53653;52.188;8.602;2022-08-01T00:00:32;19.41;90.82
66740;DHT22;53653;52.188;8.602;2022-08-01T00:02:57;19.43;90.92
66740;DHT22;53653;52.188;8.602;2022-08-01T00:05:23;19.41;90.67
66740;DHT22;53653;52.188;8.602;2022-08-01T00:07:48;19.43;90.51
66740;DHT22;53653;52.188;8.602;2022-08-01T00:10:16;19.39;90.71
66740;DHT22;53653;52.188;8.602;2022-08-01T00:12:42;19.36;90.44
66740;DHT22;53653;52.188;8.602;2022-08-01T00:15:10;19.36;90.10
66740;DHT22;53653;52.188;8.602;2022-08-01T00:17:36;19.31;90.28
66740;DHT22;53653;52.188;8.602;2022-08-01T00:20:03;19.33;90.20
66740;DHT22;53653;52.188;8.602;2022-08-01T00:22:31;19.31;90.55
66740;DHT22;53653;52.188;8.602;2022-08-01T00:24:56;19.30;90.31
66740;DHT22;53653;52.188;8.602;2022-08-01T00:27:22;19.30;90.48
66740;DHT22;53653;52.188;8.602;2022-08-01T00:29:47;19.30;90.40
66740;DHT22;53653;52.188;8.602;2022-08-01T00:32:12;19.27;90.78
66740;DHT22;53653;52.188;8.602;2022-08-01T00:34:38;19.31;90.66
66740;DHT22;53653;52.188;8.602;2022-08-01T00:37:03;19.30;90.69
66740;DHT22;53653;52.188;8.602;2022-08-01T00:39:28;19.31;90.70
66740;DHT22;53653;52.188;8.602;2022-08-01T00:41:54;19.37;90.40
66740;DHT22;53653;52.188;8.602;2022-08-01T00:44:19;19.30;90.77
66740;DHT22;53653;52.188;8.602;2022-08-01T00:46:45;19.33;90.66
66740;DHT22;53653;52.188;8.602;2022-08-01T00:49:10;19.30;90.92
66740;DHT22;53653;52.188;8.602;2022-08-01T00:51:35;19.33;90.85
66740;DHT22;53653;52.188;8.602;2022-08-01T00:54:01;19.34;90.98
66740;DHT22;53653;52.188;8.602;2022-08-01T00:56:27;19.34;90.62
66740;DHT22;53653;52.188;8.602;2022-08-01T00:58:54;19.33;90.64
66740;DHT22;53653;52.188;8.602;2022-08-01T01:01:21;19.31;90.44
66740;DHT22;53653;52.188;8.602;2022-08-01T01:03:51;19.27;90.81
66740;DHT22;53653;52.188;8.602;2022-08-01T01:11:29;19.12;90.73
66740;DHT22;53653;52.188;8.602;2022-08-01T01:14:10;19.12;90.85
66740;DHT22;53653;52.188;8.602;2022-08-01T01:16:40;19.08;90.79
66740;DHT22;53653;52.188;8.602;2022-08-01T01:19:10;19.06;90.70
66740;DHT22;53653;52.188;8.602;2022-08-01T01:29:35;19.01;90.87
66740;DHT22;53653;52.188;8.602;2022-08-01T01:34:44;19.01;90.80
66740;DHT22;53653;52.188;8.602;2022-08-01T01:37:14;18.96;90.99
66740;DHT22;53653;52.188;8.602;2022-08-01T01:39:42;18.94;90.90
66740;DHT22;53653;52.188;8.602;2022-08-01T01:42:08;18.95;91.05
66740;DHT22;53653;52.188;8.602;2022-08-01T01:44:34;18.95;90.97
66740;DHT22;53653;52.188;8.602;2022-08-01T01:47:01;18.92;90.89
66740;DHT22;53653;52.188;8.602;2022-08-01T01:49:28;18.91;90.73
66740;DHT22;53653;52.188;8.602;2022-08-01T01:51:56;18.88;90.82
66740;DHT22;53653;52.188;8.602;2022-08-01T01:54:23;18.87;90.97
66740;DHT22;53653;52.188;8.602;2022-08-01T01:56:50;18.91;90.92
66740;DHT22;53653;52.188;8.602;2022-08-01T01:59:25;18.87;90.91
66740;DHT22;53653;52.188;8.602;2022-08-01T02:01:55;18.89;90.86
66740;DHT22;53653;52.188;8.602;2022-08-01T02:04:22;18.88;90.85
66740;DHT22;53653;52.188;8.602;2022-08-01T02:06:49;18.88;90.78
66740;DHT22;53653;52.188;8.602;2022-08-01T02:09:20;18.85;91.01
66740;DHT22;53653;52.188;8.602;2022-08-01T02:11:49;18.84;91.14
66740;DHT22;53653;52.188;8.602;2022-08-01T02:14:16;18.87;91.07
66740;DHT22;53653;52.188;8.602;2022-08-01T02:16:45;18.91;91.06
66740;DHT22;53653;52.188;8.602;2022-08-01T02:19:12;18.85;91.36
66740;DHT22;53653;52.188;8.602;2022-08-01T02:21:39;18.87;91.57
66740;DHT22;53653;52.188;8.602;2022-08-01T02:27:01;18.79;91.95
66740;DHT22;53653;52.188;8.602;2022-08-01T02:29:38;18.79;91.92
66740;DHT22;53653;52.188;8.602;2022-08-01T02:32:06;18.75;92.20
66740;DHT22;53653;52.188;8.602;2022-08-01T02:34:33;18.75;92.03
66740;DHT22;53653;52.188;8.602;2022-08-01T02:37:02;18.74;92.01
66740;DHT22;53653;52.188;8.602;2022-08-01T02:39:30;18.76;91.98
66740;DHT22;53653;52.188;8.602;2022-08-01T02:42:00;18.74;91.94
66740;DHT22;53653;52.188;8.602;2022-08-01T02:44:36;18.76;91.56
66740;DHT22;53653;52.188;8.602;2022-08-01T02:47:03;18.74;91.70
66740;DHT22;53653;52.188;8.602;2022-08-01T02:49:32;18.72;91.81
66740;DHT22;53653;52.188;8.602;2022-08-01T02:52:00;18.71;92.12
66740;DHT22;53653;52.188;8.602;2022-08-01T02:54:27;18.72;92.16
66740;DHT22;53653;52.188;8.602;2022-08-01T02:56:55;18.71;92.02
66740;DHT22;53653;52.188;8.602;2022-08-01T02:59:22;18.74;91.81
66740;DHT22;53653;52.188;8.602;2022-08-01T03:01:54;18.72;91.82
66740;DHT22;53653;52.188;8.602;2022-08-01T03:04:22;18.72;91.80
66740;DHT22;53653;52.188;8.602;2022-08-01T03:06:48;18.74;91.69
66740;DHT22;53653;52.188;8.602;2022-08-01T03:09:14;18.75;91.41
66740;DHT22;53653;52.188;8.602;2022-08-01T03:11:41;18.75;91.48
66740;DHT22;53653;52.188;8.602;2022-08-01T03:14:09;18.76;91.38
66740;DHT22;53653;52.188;8.602;2022-08-01T03:16:36;18.79;91.12
66740;DHT22;53653;52.188;8.602;2022-08-01T03:19:03;18.78;91.25
66740;DHT22;53653;52.188;8.602;2022-08-01T03:21:31;18.75;91.21
66740;DHT22;53653;52.188;8.602;2022-08-01T03:23:59;18.76;91.25
66740;DHT22;53653;52.188;8.602;2022-08-01T03:26:31;18.71;91.43
66740;DHT22;53653;52.188;8.602;2022-08-01T03:29:01;18.68;91.59
66740;DHT22;53653;52.188;8.602;2022-08-01T03:31:28;18.64;91.71
66740;DHT22;53653;52.188;8.602;2022-08-01T03:33:54;18.65;91.87
66740;DHT22;53653;52.188;8.602;2022-08-01T03:36:23;18.67;91.89
66740;DHT22;53653;52.188;8.602;2022-08-01T03:38:50;18.67;91.99
66740;DHT22;53653;52.188;8.602;2022-08-01T03:41:20;18.69;91.65
66740;DHT22;53653;52.188;8.602;2022-08-01T03:43:56;18.71;91.77
66740;DHT22;53653;52.188;8.602;2022-08-01T03:46:32;18.69;91.62
66740;DHT22;53653;52.188;8.602;2022-08-01T03:49:00;18.69;91.85
66740;DHT22;53653;52.188;8.602;2022-08-01T03:51:29;18.71;91.59
66740;DHT22;53653;52.188;8.602;2022-08-01T03:53:56;18.75;91.43
66740;DHT22;53653;52.188;8.602;2022-08-01T03:56:25;18.69;91.71
66740;DHT22;53653;52.188;8.602;2022-08-01T03:58:51;18.72;91.87
66740;DHT22;53653;52.188;8.602;2022-08-01T04:01:17;18.71;91.62
66740;DHT22;53653;52.188;8.602;2022-08-01T04:03:43;18.71;91.52
66740;DHT22;53653;52.188;8.602;2022-08-01T04:06:09;18.72;91.48
66740;DHT22;53653;52.188;8.602;2022-08-01T04:08:39;18.71;91.41
66740;DHT22;53653;52.188;8.602;2022-08-01T04:11:05;18.71;91.45
66740;DHT22;53653;52.188;8.602;2022-08-01T04:13:32;18.68;91.68
66740;DHT22;53653;52.188;8.602;2022-08-01T04:15:58;18.65;91.95
66740;DHT22;53653;52.188;8.602;2022-08-01T04:18:23;18.61;92.10
66740;DHT22;53653;52.188;8.602;2022-08-01T04:20:49;18.62;92.13
66740;DHT22;53653;52.188;8.602;2022-08-01T04:23:16;18.61;92.16
66740;DHT22;53653;52.188;8.602;2022-08-01T04:25:43;18.64;92.27
66740;DHT22;53653;52.188;8.602;2022-08-01T04:28:10;18.67;91.99
66740;DHT22;53653;52.188;8.602;2022-08-01T04:30:42;18.68;91.95
66740;DHT22;53653;52.188;8.602;2022-08-01T04:33:11;18.67;92.19
66740;DHT22;53653;52.188;8.602;2022-08-01T04:35:40;18.65;92.32
66740;DHT22;53653;52.188;8.602;2022-08-01T04:38:08;18.68;92.11
66740;DHT22;53653;52.188;8.602;2022-08-01T04:40:35;18.69;91.97
66740;DHT22;53653;52.188;8.602;2022-08-01T04:43:02;18.71;92.05
66740;DHT22;53653;52.188;8.602;2022-08-01T04:45:27;18.69;92.08
66740;DHT22;53653;52.188;8.602;2022-08-01T04:47:54;18.72;92.05
66740;DHT22;53653;52.188;8.602;2022-08-01T04:50:20;18.74;91.79
66740;DHT22;53653;52.188;8.602;2022-08-01T04:52:47;18.79;91.84
66740;DHT22;53653;52.188;8.602;2022-08-01T04:55:13;18.76;91.61
66740;DHT22;53653;52.188;8.602;2022-08-01T04:57:40;18.75;91.74
66740;DHT22;53653;52.188;8.602;2022-08-01T05:00:07;18.78;91.87
66740;DHT22;53653;52.188;8.602;2022-08-01T05:02:33;18.81;92.02
66740;DHT22;53653;52.188;8.602;2022-08-01T05:04:58;18.82;91.71
66740;DHT22;53653;52.188;8.602;2022-08-01T05:07:24;18.85;91.83
66740;DHT22;53653;52.188;8.602;2022-08-01T05:09:50;18.85;91.67
66740;DHT22;53653;52.188;8.602;2022-08-01T05:12:15;18.84;91.65
66740;DHT22;53653;52.188;8.602;2022-08-01T05:14:41;18.89;91.33
66740;DHT22;53653;52.188;8.602;2022-08-01T05:17:08;18.94;91.22
66740;DHT22;53653;52.188;8.602;2022-08-01T05:19:34;18.99;90.43
66740;DHT22;53653;52.188;8.602;2022-08-01T05:22:01;19.02;90.51
66740;DHT22;53653;52.188;8.602;2022-08-01T05:24:27;19.01;90.53
66740;DHT22;53653;52.188;8.602;2022-08-01T05:26:55;19.03;90.71
66740;DHT22;53653;52.188;8.602;2022-08-01T05:29:21;19.06;90.37
66740;DHT22;53653;52.188;8.602;2022-08-01T05:31:46;19.09;90.17
66740;DHT22;53653;52.188;8.602;2022-08-01T05:34:12;19.12;89.53
66740;DHT22;53653;52.188;8.602;2022-08-01T05:36:37;19.10;89.54
66740;DHT22;53653;52.188;8.602;2022-08-01T05:39:03;19.05;89.70
66740;DHT22;53653;52.188;8.602;2022-08-01T05:41:29;19.08;89.88
66740;DHT22;53653;52.188;8.602;2022-08-01T05:43:55;19.06;89.49
66740;DHT22;53653;52.188;8.602;2022-08-01T05:46:20;19.01;89.95
66740;DHT22;53653;52.188;8.602;2022-08-01T05:48:46;19.01;90.38
66740;DHT22;53653;52.188;8.602;2022-08-01T05:51:11;19.10;89.26
66740;DHT22;53653;52.188;8.602;2022-08-01T05:53:37;19.10;89.81
66740;DHT22;53653;52.188;8.602;2022-08-01T05:56:02;19.10;89.35
66740;DHT22;53653;52.188;8.602;2022-08-01T05:58:28;19.08;89.34
66740;DHT22;53653;52.188;8.602;2022-08-01T06:00:53;19.08;89.46
66740;DHT22;53653;52.188;8.602;2022-08-01T06:03:19;19.08;89.03
66740;DHT22;53653;52.188;8.602;2022-08-01T06:05:44;19.03;89.58
66740;DHT22;53653;52.188;8.602;2022-08-01T06:08:10;18.99;89.49
66740;DHT22;53653;52.188;8.602;2022-08-01T06:10:35;18.99;89.21
66740;DHT22;53653;52.188;8.602;2022-08-01T06:13:01;18.96;89.70
66740;DHT22;53653;52.188;8.602;2022-08-01T06:15:29;18.99;89.35
66740;DHT22;53653;52.188;8.602;2022-08-01T06:17:55;18.95;89.38
66740;DHT22;53653;52.188;8.602;2022-08-01T06:20:20;18.89;89.78
66740;DHT22;53653;52.188;8.602;2022-08-01T06:22:46;18.87;90.30
66740;DHT22;53653;52.188;8.602;2022-08-01T06:25:11;18.89;89.97
66740;DHT22;53653;52.188;8.602;2022-08-01T06:27:36;18.91;89.75
66740;DHT22;53653;52.188;8.602;2022-08-01T06:30:03;18.94;89.19
66740;DHT22;53653;52.188;8.602;2022-08-01T06:32:29;18.98;88.92
66740;DHT22;53653;52.188;8.602;2022-08-01T06:34:55;19.08;88.90
66740;DHT22;53653;52.188;8.602;2022-08-01T06:37:20;19.13;87.91
66740;DHT22;53653;52.188;8.602;2022-08-01T06:39:46;19.19;88.31
66740;DHT22;53653;52.188;8.602;2022-08-01T06:42:12;19.27;87.39
66740;DHT22;53653;52.188;8.602;2022-08-01T06:44:37;19.33;87.76
66740;DHT22;53653;52.188;8.602;2022-08-01T06:47:03;19.45;87.45
66740;DHT22;53653;52.188;8.602;2022-08-01T06:49:28;19.63;86.90
66740;DHT22;53653;52.188;8.602;2022-08-01T06:51:54;19.74;86.28
66740;DHT22;53653;52.188;8.602;2022-08-01T06:54:19;19.98;85.24
66740;DHT22;53653;52.188;8.602;2022-08-01T06:56:46;20.24;84.12
66740;DHT22;53653;52.188;8.602;2022-08-01T06:59:11;20.40;82.92
66740;DHT22;53653;52.188;8.602;2022-08-01T07:01:37;20.33;82.90
66740;DHT22;53653;52.188;8.602;2022-08-01T07:04:03;20.29;83.90
66740;DHT22;53653;52.188;8.602;2022-08-01T07:06:28;20.33;83.57
66740;DHT22;53653;52.188;8.602;2022-08-01T07:08:53;20.37;82.72
66740;DHT22;53653;52.188;8.602;2022-08-01T07:11:20;20.36;81.85
66740;DHT22;53653;52.188;8.602;2022-08-01T07:13:46;20.33;82.62
66740;DHT22;53653;52.188;8.602;2022-08-01T07:16:13;20.42;82.79
66740;DHT22;53653;52.188;8.602;2022-08-01T07:18:39;20.53;81.91
66740;DHT22;53653;52.188;8.602;2022-08-01T07:21:04;20.46;81.85
66740;DHT22;53653;52.188;8.602;2022-08-01T07:23:30;20.62;82.07
66740;DHT22;53653;52.188;8.602;2022-08-01T07:25:55;20.73;81.80
66740;DHT22;53653;52.188;8.602;2022-08-01T07:28:20;20.97;81.05
66740;DHT22;53653;52.188;8.602;2022-08-01T07:30:46;21.05;79.66
66740;DHT22;53653;52.188;8.602;2022-08-01T07:33:12;21.12;79.32
66740;DHT22;53653;52.188;8.602;2022-08-01T07:35:37;21.30;78.41
66740;DHT22;53653;52.188;8.602;2022-08-01T07:38:05;21.38;78.61
66740;DHT22;53653;52.188;8.602;2022-08-01T07:40:31;21.31;77.73
66740;DHT22;53653;52.188;8.602;2022-08-01T07:42:56;21.25;77.68
66740;DHT22;53653;52.188;8.602;2022-08-01T07:45:22;21.20;78.08
66740;DHT22;53653;52.188;8.602;2022-08-01T07:47:47;20.93;77.86
66740;DHT22;53653;52.188;8.602;2022-08-01T07:50:15;20.84;80.03
66740;DHT22;53653;52.188;8.602;2022-08-01T07:52:41;20.86;79.56
66740;DHT22;53653;52.188;8.602;2022-08-01T07:55:07;20.81;79.23
66740;DHT22;53653;52.188;8.602;2022-08-01T07:57:32;20.70;79.04
66740;DHT22;53653;52.188;8.602;2022-08-01T07:59:58;20.47;80.21
66740;DHT22;53653;52.188;8.602;2022-08-01T08:02:23;19.88;80.48
66740;DHT22;53653;52.188;8.602;2022-08-01T08:04:49;19.68;81.35
66740;DHT22;53653;52.188;8.602;2022-08-01T08:07:14;19.54;81.67
66740;DHT22;53653;52.188;8.602;2022-08-01T08:09:40;19.59;81.79
66740;DHT22;53653;52.188;8.602;2022-08-01T08:12:06;19.46;81.50
66740;DHT22;53653;52.188;8.602;2022-08-01T08:14:31;19.53;81.81
66740;DHT22;53653;52.188;8.602;2022-08-01T08:16:57;19.77;80.84
66740;DHT22;53653;52.188;8.602;2022-08-01T08:19:22;19.97;78.76
66740;DHT22;53653;52.188;8.602;2022-08-01T08:21:47;20.01;78.76
66740;DHT22;53653;52.188;8.602;2022-08-01T08:24:13;19.97;79.12
66740;DHT22;53653;52.188;8.602;2022-08-01T08:26:45;20.02;78.72
66740;DHT22;53653;52.188;8.602;2022-08-01T08:29:11;19.97;79.36
66740;DHT22;53653;52.188;8.602;2022-08-01T08:31:36;20.11;79.11
66740;DHT22;53653;52.188;8.602;2022-08-01T08:34:01;20.24;78.45
66740;DHT22;53653;52.188;8.602;2022-08-01T08:36:27;20.29;78.73
66740;DHT22;53653;52.188;8.602;2022-08-01T08:38:52;20.43;78.93
66740;DHT22;53653;52.188;8.602;2022-08-01T08:41:18;20.57;78.34
66740;DHT22;53653;52.188;8.602;2022-08-01T08:43:43;20.53;76.97
66740;DHT22;53653;52.188;8.602;2022-08-01T08:46:11;20.66;77.08
66740;DHT22;53653;52.188;8.602;2022-08-01T08:48:39;20.84;76.59
66740;DHT22;53653;52.188;8.602;2022-08-01T08:51:05;20.81;75.41
66740;DHT22;53653;52.188;8.602;2022-08-01T08:53:32;21.01;76.73
66740;DHT22;53653;52.188;8.602;2022-08-01T08:55:58;21.52;74.16
66740;DHT22;53653;52.188;8.602;2022-08-01T08:58:25;21.86;72.60
66740;DHT22;53653;52.188;8.602;2022-08-01T09:00:53;21.85;73.03
66740;DHT22;53653;52.188;8.602;2022-08-01T09:03:18;22.13;72.21
66740;DHT22;53653;52.188;8.602;2022-08-01T09:05:44;22.51;71.37
66740;DHT22;53653;52.188;8.602;2022-08-01T09:08:09;22.52;70.60
66740;DHT22;53653;52.188;8.602;2022-08-01T09:10:35;22.62;68.56
66740;DHT22;53653;52.188;8.602;2022-08-01T09:13:12;23.17;68.75
66740;DHT22;53653;52.188;8.602;2022-08-01T09:15:49;23.05;68.21
66740;DHT22;53653;52.188;8.602;2022-08-01T09:18:34;22.73;68.78
66740;DHT22;53653;52.188;8.602;2022-08-01T09:23:53;21.99;70.81
66740;DHT22;53653;52.188;8.602;2022-08-01T09:26:31;21.96;70.96
66740;DHT22;53653;52.188;8.602;2022-08-01T09:28:58;22.25;69.57
66740;DHT22;53653;52.188;8.602;2022-08-01T09:31:26;22.25;70.40
66740;DHT22;53653;52.188;8.602;2022-08-01T09:33:54;22.41;68.33
66740;DHT22;53653;52.188;8.602;2022-08-01T09:36:22;23.06;66.48
66740;DHT22;53653;52.188;8.602;2022-08-01T09:38:49;22.81;66.50
66740;DHT22;53653;52.188;8.602;2022-08-01T09:41:14;22.65;68.61
66740;DHT22;53653;52.188;8.602;2022-08-01T09:43:47;22.72;68.22
66740;DHT22;53653;52.188;8.602;2022-08-01T09:46:13;22.76;66.70
66740;DHT22;53653;52.188;8.602;2022-08-01T09:48:54;22.55;66.73
66740;DHT22;53653;52.188;8.602;2022-08-01T09:51:34;22.52;67.79
66740;DHT22;53653;52.188;8.602;2022-08-01T09:54:00;22.27;68.01
66740;DHT22;53653;52.188;8.602;2022-08-01T09:56:26;22.51;68.33
66740;DHT22;53653;52.188;8.602;2022-08-01T09:59:00;22.76;67.40
66740;DHT22;53653;52.188;8.602;2022-08-01T10:01:27;22.94;67.73
66740;DHT22;53653;52.188;8.602;2022-08-01T10:06:30;23.75;62.21
66740;DHT22;53653;52.188;8.602;2022-08-01T10:08:55;23.85;63.64
66740;DHT22;53653;52.188;8.602;2022-08-01T10:11:21;23.10;65.29
66740;DHT22;53653;52.188;8.602;2022-08-01T10:13:48;22.78;66.17
66740;DHT22;53653;52.188;8.602;2022-08-01T10:16:14;22.51;67.61
66740;DHT22;53653;52.188;8.602;2022-08-01T10:18:41;22.16;67.68
66740;DHT22;53653;52.188;8.602;2022-08-01T10:21:08;22.27;67.80
66740;DHT22;53653;52.188;8.602;2022-08-01T10:23:36;22.24;67.71
66740;DHT22;53653;52.188;8.602;2022-08-01T10:26:02;21.96;68.69
66740;DHT22;53653;52.188;8.602;2022-08-01T10:28:30;22.06;69.71
66740;DHT22;53653;52.188;8.602;2022-08-01T10:31:00;22.30;69.30
66740;DHT22;53653;52.188;8.602;2022-08-01T10:33:28;22.57;66.73
66740;DHT22;53653;52.188;8.602;2022-08-01T10:35:54;22.47;67.44
66740;DHT22;53653;52.188;8.602;2022-08-01T10:38:20;22.65;66.22
66740;DHT22;53653;52.188;8.602;2022-08-01T10:40:45;22.31;67.41
66740;DHT22;53653;52.188;8.602;2022-08-01T10:43:14;22.55;67.75
66740;DHT22;53653;52.188;8.602;2022-08-01T10:45:42;21.96;68.27
66740;DHT22;53653;52.188;8.602;2022-08-01T10:48:16;21.82;69.67
66740;DHT22;53653;52.188;8.602;2022-08-01T10:50:44;21.92;69.68
66740;DHT22;53653;52.188;8.602;2022-08-01T10:56:07;22.76;65.55
66740;DHT22;53653;52.188;8.602;2022-08-01T11:01:26;22.82;64.67
66740;DHT22;53653;52.188;8.602;2022-08-01T11:08:58;22.82;65.49
66740;DHT22;53653;52.188;8.602;2022-08-01T11:11:23;22.95;66.08
66740;DHT22;53653;52.188;8.602;2022-08-01T11:14:05;22.92;66.46
66740;DHT22;53653;52.188;8.602;2022-08-01T11:16:39;22.62;66.32
66740;DHT22;53653;52.188;8.602;2022-08-01T11:19:07;22.76;65.95
66740;DHT22;53653;52.188;8.602;2022-08-01T11:27:20;23.16;62.62
66740;DHT22;53653;52.188;8.602;2022-08-01T11:35:11;23.13;63.64
66740;DHT22;53653;52.188;8.602;2022-08-01T11:37:37;23.24;61.89
66740;DHT22;53653;52.188;8.602;2022-08-01T11:42:41;23.26;61.71
66740;DHT22;53653;52.188;8.602;2022-08-01T11:45:07;23.36;62.29
66740;DHT22;53653;52.188;8.602;2022-08-01T11:47:48;23.64;60.40
66740;DHT22;53653;52.188;8.602;2022-08-01T11:50:31;23.44;61.30
66740;DHT22;53653;52.188;8.602;2022-08-01T11:52:58;23.60;59.88
66740;DHT22;53653;52.188;8.602;2022-08-01T11:55:24;23.58;60.63
66740;DHT22;53653;52.188;8.602;2022-08-01T11:57:58;23.27;62.47
66740;DHT22;53653;52.188;8.602;2022-08-01T12:00:24;22.89;63.36
66740;DHT22;53653;52.188;8.602;2022-08-01T12:02:58;23.20;63.50
66740;DHT22;53653;52.188;8.602;2022-08-01T12:05:24;23.31;62.42
66740;DHT22;53653;52.188;8.602;2022-08-01T12:07:50;23.40;62.49
66740;DHT22;53653;52.188;8.602;2022-08-01T12:10:18;23.46;60.86
66740;DHT22;53653;52.188;8.602;2022-08-01T12:12:53;23.19;62.24
66740;DHT22;53653;52.188;8.602;2022-08-01T12:15:21;23.33;61.70
66740;DHT22;53653;52.188;8.602;2022-08-01T12:17:55;23.37;61.69
66740;DHT22;53653;52.188;8.602;2022-08-01T12:20:23;23.37;61.16
66740;DHT22;53653;52.188;8.602;2022-08-01T12:22:55;23.40;61.48
66740;DHT22;53653;52.188;8.602;2022-08-01T12:25:21;22.94;61.37
66740;DHT22;53653;52.188;8.602;2022-08-01T12:27:47;22.78;62.08
66740;DHT22;53653;52.188;8.602;2022-08-01T12:30:19;22.98;61.91
66740;DHT22;53653;52.188;8.602;2022-08-01T12:32:48;23.50;60.06
66740;DHT22;53653;52.188;8.602;2022-08-01T12:35:19;23.68;59.29
66740;DHT22;53653;52.188;8.602;2022-08-01T12:37:51;23.77;59.05
66740;DHT22;53653;52.188;8.602;2022-08-01T12:40:22;23.79;58.52
66740;DHT22;53653;52.188;8.602;2022-08-01T12:42:49;23.86;58.43
66740;DHT22;53653;52.188;8.602;2022-08-01T12:45:17;23.77;59.10
66740;DHT22;53653;52.188;8.602;2022-08-01T12:47:43;23.60;60.85
66740;DHT22;53653;52.188;8.602;2022-08-01T12:50:15;23.28;60.14
66740;DHT22;53653;52.188;8.602;2022-08-01T12:52:41;23.36;60.54
66740;DHT22;53653;52.188;8.602;2022-08-01T12:55:18;23.34;58.19
66740;DHT22;53653;52.188;8.602;2022-08-01T12:57:45;23.28;59.65
66740;DHT22;53653;52.188;8.602;2022-08-01T13:02:46;23.73;56.81
66740;DHT22;53653;52.188;8.602;2022-08-01T13:05:13;23.79;56.81
66740;DHT22;53653;52.188;8.602;2022-08-01T13:07:45;23.92;55.73
66740;DHT22;53653;52.188;8.602;2022-08-01T13:10:11;24.02;55.99
66740;DHT22;53653;52.188;8.602;2022-08-01T13:12:38;24.11;56.92
66740;DHT22;53653;52.188;8.602;2022-08-01T13:15:37;24.16;55.78
66740;DHT22;53653;52.188;8.602;2022-08-01T13:18:23;24.39;55.60
66740;DHT22;53653;52.188;8.602;2022-08-01T13:21:07;24.30;55.42
66740;DHT22;53653;52.188;8.602;2022-08-01T13:23:33;24.23;55.87
66740;DHT22;53653;52.188;8.602;2022-08-01T13:25:58;24.15;57.03
66740;DHT22;53653;52.188;8.602;2022-08-01T13:28:26;24.06;56.86
66740;DHT22;53653;52.188;8.602;2022-08-01T13:33:20;24.13;55.87
66740;DHT22;53653;52.188;8.602;2022-08-01T13:35:45;24.26;55.56
66740;DHT22;53653;52.188;8.602;2022-08-01T13:38:12;24.25;55.57
66740;DHT22;53653;52.188;8.602;2022-08-01T13:40:38;23.75;56.68
66740;DHT22;53653;52.188;8.602;2022-08-01T13:43:03;23.82;57.64
66740;DHT22;53653;52.188;8.602;2022-08-01T13:45:29;23.84;57.04
66740;DHT22;53653;52.188;8.602;2022-08-01T13:47:54;24.02;56.21
66740;DHT22;53653;52.188;8.602;2022-08-01T13:50:19;24.08;55.45
66740;DHT22;53653;52.188;8.602;2022-08-01T13:52:45;24.11;56.67
66740;DHT22;53653;52.188;8.602;2022-08-01T13:55:10;24.05;56.59
66740;DHT22;53653;52.188;8.602;2022-08-01T13:57:36;24.01;56.28
66740;DHT22;53653;52.188;8.602;2022-08-01T14:00:03;24.28;55.63
66740;DHT22;53653;52.188;8.602;2022-08-01T14:02:28;23.85;56.71
66740;DHT22;53653;52.188;8.602;2022-08-01T14:04:54;23.43;57.08
66740;DHT22;53653;52.188;8.602;2022-08-01T14:07:21;23.67;57.24
66740;DHT22;53653;52.188;8.602;2022-08-01T14:09:46;23.86;55.49
66740;DHT22;53653;52.188;8.602;2022-08-01T14:12:12;23.81;56.46
66740;DHT22;53653;52.188;8.602;2022-08-01T14:14:37;23.88;56.44
66740;DHT22;53653;52.188;8.602;2022-08-01T14:17:03;23.82;56.43
66740;DHT22;53653;52.188;8.602;2022-08-01T14:19:29;23.77;56.47
66740;DHT22;53653;52.188;8.602;2022-08-01T14:21:54;23.73;56.92
66740;DHT22;53653;52.188;8.602;2022-08-01T14:24:22;23.57;57.87
66740;DHT22;53653;52.188;8.602;2022-08-01T14:26:47;23.57;58.39
66740;DHT22;53653;52.188;8.602;2022-08-01T14:29:13;23.63;57.62
66740;DHT22;53653;52.188;8.602;2022-08-01T14:31:38;23.73;56.82
66740;DHT22;53653;52.188;8.602;2022-08-01T14:34:03;23.71;56.57
66740;DHT22;53653;52.188;8.602;2022-08-01T14:36:29;23.58;57.17
66740;DHT22;53653;52.188;8.602;2022-08-01T14:38:54;23.74;56.11
66740;DHT22;53653;52.188;8.602;2022-08-01T14:41:20;23.84;57.04
66740;DHT22;53653;52.188;8.602;2022-08-01T14:43:45;23.89;56.74
66740;DHT22;53653;52.188;8.602;2022-08-01T14:46:11;23.89;57.27
66740;DHT22;53653;52.188;8.602;2022-08-01T14:48:37;23.84;56.69
66740;DHT22;53653;52.188;8.602;2022-08-01T14:51:03;23.78;56.44
66740;DHT22;53653;52.188;8.602;2022-08-01T14:53:30;23.73;56.47
66740;DHT22;53653;52.188;8.602;2022-08-01T14:55:55;23.54;56.85
66740;DHT22;53653;52.188;8.602;2022-08-01T14:58:21;23.60;56.89
66740;DHT22;53653;52.188;8.602;2022-08-01T15:00:46;23.61;57.85
66740;DHT22;53653;52.188;8.602;2022-08-01T15:03:12;23.64;58.24
66740;DHT22;53653;52.188;8.602;2022-08-01T15:05:38;23.63;57.51
66740;DHT22;53653;52.188;8.602;2022-08-01T15:08:04;23.57;57.72
66740;DHT22;53653;52.188;8.602;2022-08-01T15:10:30;23.33;57.55
66740;DHT22;53653;52.188;8.602;2022-08-01T15:12:57;23.07;57.56
66740;DHT22;53653;52.188;8.602;2022-08-01T15:15:25;23.26;58.48
66740;DHT22;53653;52.188;8.602;2022-08-01T15:17:50;23.33;57.11
66740;DHT22;53653;52.188;8.602;2022-08-01T15:20:17;23.67;55.75
66740;DHT22;53653;52.188;8.602;2022-08-01T15:22:43;23.50;56.30
66740;DHT22;53653;52.188;8.602;2022-08-01T15:25:09;23.31;56.97
66740;DHT22;53653;52.188;8.602;2022-08-01T15:27:34;23.42;55.64
66740;DHT22;53653;52.188;8.602;2022-08-01T15:30:00;23.53;56.61
66740;DHT22;53653;52.188;8.602;2022-08-01T15:32:25;23.40;56.05
66740;DHT22;53653;52.188;8.602;2022-08-01T15:34:51;23.47;55.99
66740;DHT22;53653;52.188;8.602;2022-08-01T15:37:16;23.39;55.78
66740;DHT22;53653;52.188;8.602;2022-08-01T15:39:42;23.46;56.96
66740;DHT22;53653;52.188;8.602;2022-08-01T15:42:10;23.70;54.86
66740;DHT22;53653;52.188;8.602;2022-08-01T15:44:39;23.74;55.33
66740;DHT22;53653;52.188;8.602;2022-08-01T15:47:05;23.65;55.42
66740;DHT22;53653;52.188;8.602;2022-08-01T15:49:31;23.33;56.60
66740;DHT22;53653;52.188;8.602;2022-08-01T15:51:56;23.33;56.98
66740;DHT22;53653;52.188;8.602;2022-08-01T15:54:22;23.43;56.21
66740;DHT22;53653;52.188;8.602;2022-08-01T15:56:48;23.30;56.34
66740;DHT22;53653;52.188;8.602;2022-08-01T15:59:14;23.33;57.32
66740;DHT22;53653;52.188;8.602;2022-08-01T16:01:39;23.54;55.66
66740;DHT22;53653;52.188;8.602;2022-08-01T16:04:05;23.61;56.26
66740;DHT22;53653;52.188;8.602;2022-08-01T16:06:32;23.94;55.87
66740;DHT22;53653;52.188;8.602;2022-08-01T16:08:58;23.97;54.85
66740;DHT22;53653;52.188;8.602;2022-08-01T16:11:24;24.30;54.11
66740;DHT22;53653;52.188;8.602;2022-08-01T16:13:55;23.64;55.18
66740;DHT22;53653;52.188;8.602;2022-08-01T16:16:20;23.13;55.68
66740;DHT22;53653;52.188;8.602;2022-08-01T16:18:46;22.64;57.93
66740;DHT22;53653;52.188;8.602;2022-08-01T16:21:12;22.64;57.97
66740;DHT22;53653;52.188;8.602;2022-08-01T16:23:41;22.98;58.58